createdAt,value
2023-05-15T00:02:35.000Z,4.80
2023-05-15T00:06:39.296Z,5.35
2023-05-15T00:10:57.413Z,4.15
2023-05-15T00:15:03.624Z,4.47
2023-05-15T00:19:06.821Z,3.90
2023-05-15T00:23:10.083Z,3.90
2023-05-15T00:27:14.671Z,3.97
2023-05-15T00:31:18.001Z,4.90
2023-05-15T00:35:20.925Z,3.33
2023-05-15T00:39:24.554Z,4.53
2023-05-15T00:43:30.601Z,4.93
2023-05-15T00:47:35.294Z,5.22
2023-05-15T00:51:38.845Z,5.22
2023-05-15T00:55:43.796Z,5.05
2023-05-15T00:59:51.502Z,4.78
2023-05-15T01:03:55.062Z,4.75
2023-05-15T01:08:10.064Z,4.22
2023-05-15T01:12:16.999Z,4.88
2023-05-15T01:16:22.799Z,4.15
2023-05-15T01:20:27.284Z,5.20
2023-05-15T01:24:51.490Z,5.18
2023-05-15T01:29:01.099Z,4.85
2023-05-15T01:33:10.083Z,6.68
2023-05-15T01:37:16.123Z,5.63
2023-05-15T01:41:26.345Z,5.60
2023-05-15T01:45:33.774Z,5.15
2023-05-15T01:49:38.176Z,5.00
2023-05-15T01:53:43.974Z,4.10
2023-05-15T01:57:48.835Z,4.13
2023-05-15T02:01:54.154Z,3.58
2023-05-15T02:05:58.057Z,3.38
2023-05-15T02:10:03.301Z,3.58
2023-05-15T02:14:07.144Z,3.17
2023-05-15T02:18:12.305Z,3.28
2023-05-15T02:22:15.528Z,3.33
2023-05-15T02:26:31.361Z,2.67
2023-05-15T02:30:40.366Z,4.03
2023-05-15T02:34:52.724Z,2.17
2023-05-15T02:38:58.046Z,2.60
2023-05-15T02:43:02.044Z,2.25
2023-05-15T02:47:06.581Z,2.70
2023-05-15T02:51:12.494Z,2.95
2023-05-15T02:55:16.296Z,3.20
2023-05-15T02:59:20.284Z,2.92
2023-05-15T03:03:23.615Z,3.00
2023-05-15T03:07:28.322Z,2.22
2023-05-15T03:11:31.751Z,1.40
2023-05-15T03:15:35.062Z,1.35
2023-05-15T03:19:38.790Z,2.05
2023-05-15T03:23:43.280Z,2.13
2023-05-15T03:27:47.042Z,2.08
2023-05-15T03:31:50.299Z,1.40
2023-05-15T03:35:53.695Z,1.55
2023-05-15T03:39:58.384Z,1.95
2023-05-15T03:44:01.753Z,1.42
2023-05-15T03:48:07.604Z,2.00
2023-05-15T03:52:11.763Z,2.25
2023-05-15T03:56:16.679Z,2.03
2023-05-15T04:00:20.534Z,2.20
2023-05-15T04:04:23.686Z,1.55
2023-05-15T04:08:27.149Z,2.20
2023-05-15T04:12:33.385Z,2.63
2023-05-15T04:16:36.366Z,2.72
2023-05-15T04:20:39.672Z,2.50
2023-05-15T04:24:43.240Z,2.40
2023-05-15T04:29:00.176Z,2.38
2023-05-15T04:33:07.592Z,2.42
2023-05-15T04:37:10.806Z,1.63
2023-05-15T04:41:14.195Z,1.13
2023-05-15T04:45:18.906Z,1.33
2023-05-15T04:49:22.223Z,1.70
2023-05-15T04:53:25.694Z,1.42
2023-05-15T04:57:29.829Z,1.88
2023-05-15T05:01:34.558Z,2.53
2023-05-15T05:05:37.997Z,1.90
2023-05-15T05:09:41.577Z,2.22
2023-05-15T05:13:44.989Z,1.70
2023-05-15T05:17:49.672Z,2.05
2023-05-15T05:21:52.938Z,1.27
2023-05-15T05:25:55.982Z,1.33
2023-05-15T05:29:59.416Z,1.30
2023-05-15T05:34:04.270Z,1.52
2023-05-15T05:38:07.445Z,1.48
2023-05-15T05:42:10.646Z,1.50
2023-05-15T05:46:13.881Z,0.65
2023-05-15T05:50:18.391Z,1.25
2023-05-15T05:54:22.059Z,0.80
2023-05-15T05:58:26.267Z,1.17
2023-05-15T06:02:29.943Z,0.77
2023-05-15T06:06:34.808Z,0.77
2023-05-15T06:10:38.289Z,0.75
2023-05-15T06:14:41.408Z,1.05
2023-05-15T06:18:44.823Z,1.10
2023-05-15T06:22:49.856Z,1.42
2023-05-15T06:26:53.216Z,1.00
2023-05-15T06:30:56.416Z,1.67
2023-05-15T06:34:59.929Z,1.60
2023-05-15T06:39:04.306Z,1.77
2023-05-15T06:43:07.923Z,1.83
2023-05-15T06:47:10.995Z,1.90
2023-05-15T06:51:14.806Z,1.90
2023-05-15T06:55:19.507Z,1.48
2023-05-15T06:59:22.695Z,1.45
2023-05-15T07:03:25.961Z,1.10
2023-05-15T07:07:29.045Z,0.90
2023-05-15T07:11:37.579Z,0.90
2023-05-15T07:15:41.234Z,0.70
2023-05-15T07:19:44.881Z,0.70
2023-05-15T07:23:48.230Z,0.30
2023-05-15T07:27:52.775Z,0.55
2023-05-15T07:31:56.112Z,0.90
2023-05-15T07:35:59.530Z,0.60
2023-05-15T07:40:03.078Z,0.90
2023-05-15T07:44:07.896Z,0.40
2023-05-15T07:48:19.145Z,0.88
2023-05-15T07:52:22.258Z,0.30
2023-05-15T07:56:25.671Z,0.65
2023-05-15T08:00:30.110Z,0.55
2023-05-15T08:04:33.491Z,0.57
2023-05-15T08:08:36.778Z,0.40
2023-05-15T08:12:46.461Z,0.47
2023-05-15T08:16:51.863Z,0.68
2023-05-15T08:20:55.234Z,0.70
2023-05-15T08:25:00.333Z,0.55
2023-05-15T08:29:03.909Z,0.40
2023-05-15T08:33:08.495Z,0.50
2023-05-15T08:37:12.067Z,0.40
2023-05-15T08:41:39.178Z,0.65
2023-05-15T08:45:43.659Z,0.50
2023-05-15T08:49:55.282Z,0.60
2023-05-15T08:53:59.467Z,0.73
2023-05-15T08:58:03.436Z,0.50
2023-05-15T09:02:07.568Z,0.50
2023-05-15T09:06:12.356Z,0.85
2023-05-15T09:10:17.227Z,0.35
2023-05-15T09:14:20.292Z,0.45
2023-05-15T09:18:25.381Z,0.73
2023-05-15T09:22:35.811Z,0.40
2023-05-15T09:26:39.242Z,0.52
2023-05-15T09:30:44.002Z,0.50
2023-05-15T09:34:48.230Z,0.63
2023-05-15T09:39:00.205Z,0.52
2023-05-15T09:43:03.457Z,0.77
2023-05-15T09:47:07.873Z,0.35
2023-05-15T09:51:16.724Z,0.50
2023-05-15T09:55:24.014Z,0.40
2023-05-15T09:59:27.694Z,0.50
2023-05-15T10:03:30.987Z,0.40
2023-05-15T10:07:35.802Z,0.50
2023-05-15T10:11:42.016Z,0.43
2023-05-15T10:15:46.107Z,0.32
2023-05-15T10:24:01.995Z,0.25
2023-05-15T10:28:10.132Z,0.40
2023-05-15T10:32:14.323Z,0.30
2023-05-15T10:36:18.555Z,0.60
2023-05-15T10:40:21.659Z,0.80
2023-05-15T10:44:26.708Z,0.35
2023-05-15T10:48:31.084Z,0.60
2023-05-15T10:52:34.691Z,0.52
2023-05-15T10:56:40.852Z,0.60
2023-05-15T11:00:46.943Z,0.63
2023-05-15T11:04:54.720Z,0.68
2023-05-15T11:09:36.617Z,0.45
2023-05-15T11:14:15.510Z,0.55
2023-05-15T11:18:22.015Z,1.05
2023-05-15T11:22:32.139Z,1.00
2023-05-15T11:26:35.429Z,0.90
2023-05-15T11:30:40.053Z,0.68
2023-05-15T11:34:45.320Z,0.70
2023-05-15T11:38:52.459Z,0.90
2023-05-15T11:43:07.914Z,1.17
2023-05-15T11:47:12.334Z,0.60
2023-05-15T11:51:21.968Z,0.68
2023-05-15T11:55:27.554Z,0.80
2023-05-15T11:59:32.101Z,0.70
2023-05-15T12:03:36.311Z,0.75
2023-05-15T12:07:43.761Z,0.60
2023-05-15T12:11:52.296Z,0.40
2023-05-15T12:15:57.143Z,0.63
2023-05-15T12:20:01.375Z,0.57
2023-05-15T12:24:08.335Z,0.93
2023-05-15T12:28:13.299Z,0.93
2023-05-15T12:32:17.789Z,1.50
2023-05-15T12:36:22.571Z,1.05
2023-05-15T12:41:25.758Z,1.05
2023-05-15T12:45:29.166Z,1.42
2023-05-15T12:49:32.511Z,1.20
2023-05-15T12:53:36.492Z,1.05
2023-05-15T12:57:43.282Z,0.95
2023-05-15T13:01:46.842Z,1.17
2023-05-15T13:05:50.489Z,1.55
2023-05-15T13:10:04.831Z,1.77
2023-05-15T13:14:17.812Z,1.35
2023-05-15T13:18:21.212Z,0.82
2023-05-15T13:22:25.091Z,1.25
2023-05-15T13:26:28.783Z,1.05
2023-05-15T13:30:34.354Z,0.73
2023-05-15T13:34:37.655Z,1.08
2023-05-15T13:38:41.200Z,1.67
2023-05-15T13:42:47.435Z,1.65
2023-05-15T13:46:55.013Z,1.30
2023-05-15T13:50:58.629Z,1.40
2023-05-15T13:55:01.854Z,1.33
2023-05-15T13:59:05.302Z,1.05
2023-05-15T14:03:11.252Z,1.42
2023-05-15T14:07:16.003Z,1.40
2023-05-15T14:11:19.348Z,1.17
2023-05-15T14:15:25.181Z,1.63
2023-05-15T14:19:29.872Z,1.45
2023-05-15T14:23:33.370Z,1.33
2023-05-15T14:27:36.641Z,1.08
2023-05-15T14:31:39.698Z,1.65
2023-05-15T14:35:44.417Z,1.25
2023-05-15T14:39:47.866Z,2.30
2023-05-15T14:43:51.133Z,1.23
2023-05-15T14:47:54.572Z,1.35
2023-05-15T14:51:59.309Z,1.40
2023-05-15T14:56:04.780Z,1.00
2023-05-15T15:00:11.225Z,1.23
2023-05-15T15:04:14.568Z,1.23
2023-05-15T15:08:20.198Z,1.58
2023-05-15T15:12:23.724Z,1.08
2023-05-15T15:16:27.377Z,1.33
2023-05-15T15:20:30.715Z,0.93
2023-05-15T15:24:35.237Z,1.20
2023-05-15T15:28:38.669Z,1.67
2023-05-15T15:32:43.206Z,1.23
2023-05-15T15:36:46.612Z,1.40
2023-05-15T15:40:51.434Z,1.52
2023-05-15T15:44:55.047Z,0.88
2023-05-15T15:48:58.438Z,1.67
2023-05-15T15:53:01.898Z,1.23
2023-05-15T15:57:07.441Z,1.10
2023-05-15T16:01:11.517Z,1.40
2023-05-15T16:05:15.553Z,1.20
2023-05-15T16:09:20.065Z,1.75
2023-05-15T16:13:25.029Z,1.27
2023-05-15T16:17:27.952Z,1.05
2023-05-15T16:21:31.369Z,1.10
2023-05-15T16:25:34.408Z,1.30
2023-05-15T16:29:39.093Z,1.13
2023-05-15T16:33:42.416Z,1.20
2023-05-15T16:37:45.371Z,1.20
2023-05-15T16:41:49.030Z,1.30
2023-05-15T16:45:53.643Z,1.38
2023-05-15T16:49:56.922Z,1.48
2023-05-15T16:54:01.604Z,1.50
2023-05-15T16:58:04.881Z,1.15
2023-05-15T17:02:09.783Z,1.27
2023-05-15T17:06:13.345Z,1.90
2023-05-15T17:10:16.769Z,2.67
2023-05-15T17:14:19.924Z,2.75
2023-05-15T17:18:25.653Z,1.70
2023-05-15T17:22:29.311Z,2.25
2023-05-15T17:26:36.722Z,1.98
2023-05-15T17:30:40.067Z,1.55
2023-05-15T17:34:46.785Z,1.50
2023-05-15T17:38:51.555Z,1.40
2023-05-15T17:42:55.012Z,0.82
2023-05-15T17:46:58.377Z,0.80
2023-05-15T17:51:03.274Z,0.85
2023-05-15T17:55:08.215Z,1.15
2023-05-15T17:59:11.539Z,0.93
2023-05-15T18:03:15.485Z,1.42
2023-05-15T18:07:20.492Z,2.20
2023-05-15T18:11:23.616Z,2.42
2023-05-15T18:15:27.344Z,1.98
2023-05-15T18:19:31.023Z,1.58
2023-05-15T18:23:35.618Z,1.58
2023-05-15T18:27:38.733Z,1.67
2023-05-15T18:31:42.494Z,2.00
2023-05-15T18:35:46.084Z,2.03
2023-05-15T18:39:51.126Z,2.20
2023-05-15T18:43:54.338Z,2.60
2023-05-15T18:47:58.932Z,2.92
2023-05-15T18:52:04.242Z,2.42
2023-05-15T18:56:09.265Z,2.72
2023-05-15T19:00:16.831Z,3.15
2023-05-15T19:04:24.683Z,2.53
2023-05-15T19:08:29.063Z,2.28
2023-05-15T19:12:33.980Z,1.65
2023-05-15T19:16:37.902Z,1.90
2023-05-15T19:20:41.258Z,2.00
2023-05-15T19:24:44.535Z,1.75
2023-05-15T19:28:49.246Z,1.80
2023-05-15T19:32:52.789Z,1.45
2023-05-15T19:36:56.482Z,1.10
2023-05-15T19:40:59.940Z,1.23
2023-05-15T19:45:05.333Z,1.83
2023-05-15T19:49:08.621Z,1.33
2023-05-15T19:53:12.636Z,1.00
2023-05-15T19:57:16.284Z,1.83
2023-05-15T20:01:21.183Z,1.33
2023-05-15T20:05:24.759Z,1.58
2023-05-15T20:09:27.732Z,1.90
2023-05-15T20:13:31.591Z,1.70
2023-05-15T20:17:36.771Z,2.10
2023-05-15T20:21:40.421Z,1.75
2023-05-15T20:25:43.748Z,1.30
2023-05-15T20:29:46.988Z,1.50
2023-05-15T20:33:52.168Z,1.80
2023-05-15T20:37:56.580Z,1.40
2023-05-15T20:42:00.202Z,1.48
2023-05-15T20:46:03.233Z,1.52
2023-05-15T20:50:09.694Z,1.60
2023-05-15T20:54:13.161Z,2.50
2023-05-15T20:58:16.979Z,1.40
2023-05-15T21:02:20.083Z,2.08
2023-05-15T21:06:25.118Z,1.85
2023-05-15T21:10:28.390Z,1.92
2023-05-15T21:14:32.288Z,2.35
2023-05-15T21:18:35.807Z,2.40
2023-05-15T21:22:41.438Z,2.28
2023-05-15T21:26:44.709Z,1.50
2023-05-15T21:30:48.250Z,2.35
2023-05-15T21:34:51.301Z,2.90
2023-05-15T21:38:56.466Z,2.80
2023-05-15T21:42:59.595Z,3.33
2023-05-15T21:47:03.260Z,3.08
2023-05-15T21:51:06.725Z,2.97
2023-05-15T21:55:13.008Z,2.33
2023-05-15T21:59:16.031Z,2.42
2023-05-15T22:03:20.448Z,2.38
2023-05-15T22:07:23.783Z,2.00
2023-05-15T22:11:28.395Z,1.23
2023-05-15T22:15:32.183Z,1.63
2023-05-15T22:19:36.183Z,1.20
2023-05-15T22:23:39.297Z,1.45
2023-05-15T22:27:44.409Z,1.65
2023-05-15T22:31:47.682Z,1.25
2023-05-15T22:35:51.996Z,1.48
2023-05-15T22:39:55.217Z,1.55
2023-05-15T22:44:00.018Z,1.77
2023-05-15T22:48:03.867Z,1.75
2023-05-15T22:52:07.709Z,1.20
2023-05-15T22:56:10.968Z,1.13
2023-05-15T23:00:18.623Z,1.42
2023-05-15T23:04:22.143Z,1.55
2023-05-15T23:08:25.811Z,1.77
2023-05-15T23:12:29.108Z,2.00
2023-05-15T23:16:34.109Z,2.22
2023-05-15T23:20:37.782Z,2.15
2023-05-15T23:24:41.269Z,1.70
2023-05-15T23:28:44.298Z,1.67
2023-05-15T23:32:49.402Z,2.63
2023-05-15T23:36:52.643Z,1.77
2023-05-15T23:40:56.326Z,2.05
2023-05-15T23:44:59.283Z,1.45
2023-05-15T23:49:04.152Z,1.70
2023-05-15T23:53:08.403Z,2.00
2023-05-15T23:57:12.393Z,1.50
